Time;durP1;ratioP1;P1;durP2;ratioP2;P2;SDS_P1;SDS_P2;PMS_P1;PMS_P2;Temp;Humidity;BMP_temperature;BMP_pressure;BME280_temperature;BME280_humidity;BME280_pressure;Samples;Min_cycle;Max_cycle;Signal;HPM_P1;HPM_P2
2021/04/19 00:00:51;;;;;;;;;;;;;;;;;;5082664;28;20362;-66
2021/04/19 00:03:17;;;;;;;;;;;;;;;;;;5097417;28;19980;-65
2021/04/19 00:05:44;;;;;;;;;;;;;;;;;;5101393;28;19928;-66
2021/04/19 00:08:10;;;;;;;;;;;;;;;;;;5093633;28;19976;-65
2021/04/19 00:10:37;;;;;;;;;;;;;;;;;;5088171;28;19985;-66
2021/04/19 00:13:03;;;;;;;;;;;;;;;;;;5082825;28;19928;-67
2021/04/19 00:15:30;;;;;;;;;;;;;;;;;;5084618;28;20379;-68
2021/04/19 00:17:56;;;;;;;;;;;;;;;;;;5086428;28;19963;-67
2021/04/19 00:20:23;;;;;;;;;;;;;;;;;;5082540;28;20182;-67
2021/04/19 00:22:49;;;;;;;;;;;;;;;;;;5081240;28;19975;-66
2021/04/19 00:25:16;;;;;;;;;;;;;;;;;;5087324;28;20015;-66
2021/04/19 00:27:42;;;;;;;;;;;;;;;;;;5085872;28;19934;-67
2021/04/19 00:30:09;;;;;;;;;;;;;;;;;;5082145;28;20273;-68
2021/04/19 00:32:35;;;;;;;;;;;;;;;;;;5087155;28;19932;-66
2021/04/19 00:35:02;;;;;;;;;;;;;;;;;;5085896;28;19931;-65
2021/04/19 00:37:28;;;;;;;;;;;;;;;;;;5082530;28;20045;-66
2021/04/19 00:39:55;;;;;;;;;;;;;;;;;;5083055;28;20231;-69
2021/04/19 00:42:22;;;;;;;;;;;;;;;;;;5090034;28;19924;-67
2021/04/19 00:44:48;;;;;;;;;;;;;;;;;;5085795;28;19936;-67
2021/04/19 00:47:14;;;;;;;;;;;;;;;;;;5082143;28;19931;-67
2021/04/19 00:49:41;;;;;;;;;;;;;;;;;;5082156;28;19928;-66
2021/04/19 00:52:07;;;;;;;;;;;;;;;;;;5084888;28;19924;-66
2021/04/19 00:54:34;;;;;;;;;;;;;;;;;;5084243;28;19931;-65
2021/04/19 00:57:00;;;;;;;;;;;;;;;;;;5083736;28;20030;-67
2021/04/19 00:59:27;;;;;;;;;;;;;;;;;;5083093;28;19930;-68
2021/04/19 01:01:53;;;;;;;;;;;;;;;;;;5083126;28;19928;-67
2021/04/19 01:04:20;;;;;;;;;;;;;;;;;;5084345;28;19950;-67
2021/04/19 01:06:46;;;;;;;;;;;;;;;;;;5079123;28;19954;-67
2021/04/19 01:09:13;;;;;;;;;;;;;;;;;;5086718;28;19924;-67
2021/04/19 01:11:39;;;;;;;;;;;;;;;;;;5088635;28;19924;-66
2021/04/19 01:14:06;;;;;;;;;;;;;;;;;;5079881;28;19954;-65
2021/04/19 01:16:33;;;;;;;;;;;;;;;;;;5080177;28;20575;-67
2021/04/19 01:18:59;;;;;;;;;;;;;;;;;;5079090;28;19963;-69
2021/04/19 01:21:26;;;;;;;;;;;;;;;;;;5083944;28;19932;-67
2021/04/19 01:23:52;;;;;;;;;;;;;;;;;;5091209;28;19949;-66
2021/04/19 01:26:19;;;;;;;;;;;;;;;;;;5083396;28;19930;-68
2021/04/19 01:28:45;;;;;;;;;;;;;;;;;;5083356;28;19931;-67
2021/04/19 01:31:12;;;;;;;;;;;;;;;;;;5084852;28;19924;-67
2021/04/19 01:33:38;;;;;;;;;;;;;;;;;;5080854;28;19983;-66
2021/04/19 01:36:05;;;;;;;;;;;;;;;;;;5082616;28;19931;-66
2021/04/19 01:38:31;;;;;;;;;;;;;;;;;;5083607;28;20022;-66
2021/04/19 01:40:58;;;;;;;;;;;;;;;;;;5085928;28;19932;-66
2021/04/19 01:43:24;;;;;;;;;;;;;;;;;;5078592;28;20026;-67
2021/04/19 01:45:50;;;;;;;;;;;;;;;;;;5083027;28;20387;-65
2021/04/19 01:48:17;;;;;;;;;;;;;;;;;;5083717;28;19931;-66
2021/04/19 01:50:43;;;;;;;;;;;;;;;;;;5079267;28;19924;-66
2021/04/19 01:53:10;;;;;;;;;;;;;;;;;;5084410;28;19924;-65
2021/04/19 01:55:36;;;;;;;;;;;;;;;;;;5087239;28;20031;-67
2021/04/19 01:58:03;;;;;;;;;;;;;;;;;;5079757;28;19924;-70
2021/04/19 02:00:29;;;;;;;;;;;;;;;;;;5087498;28;19928;-66
2021/04/19 02:02:56;;;;;;;;;;;;;;;;;;5074712;28;19931;-66
2021/04/19 02:05:23;;;;;;;;;;;;;;;;;;5084226;28;19928;-66
2021/04/19 02:07:49;;;;;;;;;;;;;;;;;;5083529;28;20015;-66
2021/04/19 02:10:16;;;;;;;;;;;;;;;;;;5082832;28;19982;-66
2021/04/19 02:12:42;;;;;;;;;;;;;;;;;;5081658;28;20302;-66
2021/04/19 02:15:09;;;;;;;;;;;;;;;;;;5078484;28;19924;-67
2021/04/19 02:17:35;;;;;;;;;;;;;;;;;;5086652;28;19935;-68
2021/04/19 02:20:02;;;;;;;;;;;;;;;;;;5076711;28;20027;-66
2021/04/19 02:22:28;;;;;;;;;;;;;;;;;;5085755;28;20020;-66
2021/04/19 02:24:55;;;;;;;;;;;;;;;;;;5088702;28;20358;-66
2021/04/19 02:27:21;;;;;;;;;;;;;;;;;;5090568;28;19928;-67
2021/04/19 02:29:48;;;;;;;;;;;;;;;;;;5083353;28;20327;-65
2021/04/19 02:32:14;;;;;;;;;;;;;;;;;;5090690;28;19928;-66
2021/04/19 02:34:41;;;;;;;;;;;;;;;;;;5082971;28;19946;-66
2021/04/19 02:37:07;;;;;;;;;;;;;;;;;;5087318;28;19924;-65
2021/04/19 02:39:34;;;;;;;;;;;;;;;;;;5082952;28;19932;-66
2021/04/19 02:42:00;;;;;;;;;;;;;;;;;;5083684;28;19925;-65
2021/04/19 02:44:27;;;;;;;;;;;;;;;;;;5090166;28;19924;-66
2021/04/19 02:46:53;;;;;;;;;;;;;;;;;;5087024;28;20023;-67
2021/04/19 02:49:20;;;;;;;;;;;;;;;;;;5083581;28;19929;-67
2021/04/19 02:51:46;;;;;;;;;;;;;;;;;;5084328;28;20354;-68
2021/04/19 02:54:13;;;;;;;;;;;;;;;;;;5079784;28;20003;-65
2021/04/19 02:56:39;;;;;;;;;;;;;;;;;;5088388;28;19975;-67
2021/04/19 02:59:06;;;;;;;;;;;;;;;;;;5089990;28;19932;-67
2021/04/19 03:01:32;;;;;;;;;;;;;;;;;;5089883;28;19973;-64
2021/04/19 03:03:58;;;;;;;;;;;;;;;;;;5076390;28;19929;-66
2021/04/19 03:06:25;;;;;;;;;;;;;;;;;;5083431;28;19951;-66
2021/04/19 03:08:51;;;;;;;;;;;;;;;;;;5084441;28;19930;-66
2021/04/19 03:11:18;;;;;;;;;;;;;;;;;;5089446;28;19930;-65
2021/04/19 03:13:44;;;;;;;;;;;;;;;;;;5087803;28;19935;-65
2021/04/19 03:16:11;;;;;;;;;;;;;;;;;;5084821;28;20027;-65
2021/04/19 03:18:39;;;;;;;;;;;;;;;;;;5084791;28;20308;-65
2021/04/19 03:21:05;;;;;;;;;;;;;;;;;;5084379;28;19928;-66
2021/04/19 03:23:32;;;;;;;;;;;;;;;;;;5090267;28;19928;-65
2021/04/19 03:25:58;;;;;;;;;;;;;;;;;;5089108;28;19987;-66
2021/04/19 03:28:25;;;;;;;;;;;;;;;;;;5085122;28;19928;-66
2021/04/19 03:30:51;;;;;;;;;;;;;;;;;;5081318;28;20285;-67
2021/04/19 03:33:18;;;;;;;;;;;;;;;;;;5083433;28;19977;-66
2021/04/19 03:35:44;;;;;;;;;;;;;;;;;;5085474;28;20311;-66
2021/04/19 03:38:11;;;;;;;;;;;;;;;;;;5083094;28;19924;-67
2021/04/19 03:40:37;;;;;;;;;;;;;;;;;;5084743;28;19924;-67
2021/04/19 03:43:04;;;;;;;;;;;;;;;;;;5089041;28;19924;-67
2021/04/19 03:45:30;;;;;;;;;;;;;;;;;;5083337;28;19978;-67
2021/04/19 03:47:56;;;;;;;;;;;;;;;;;;5087629;28;20418;-66
2021/04/19 03:50:23;;;;;;;;;;;;;;;;;;5085848;28;20023;-66
2021/04/19 03:52:50;;;;;;;;;;;;;;;;;;5086953;28;19947;-66
2021/04/19 03:55:16;;;;;;;;;;;;;;;;;;5082782;28;20069;-67
2021/04/19 03:57:43;;;;;;;;;;;;;;;;;;5088443;28;20019;-67
2021/04/19 04:00:09;;;;;;;;;;;;;;;;;;5083310;28;19924;-67
2021/04/19 04:02:38;;;;;;;;;;;;;;;;;;5084915;28;19932;-67
2021/04/19 04:05:04;;;;;;;;;;;;;;;;;;5090491;28;19949;-66
2021/04/19 04:07:31;;;;;;;;;;;;;;;;;;5092613;28;20015;-67
2021/04/19 04:09:57;;;;;;;;;;;;;;;;;;5085774;28;19931;-66
2021/04/19 04:12:24;;;;;;;;;;;;;;;;;;5085433;28;19969;-66
2021/04/19 04:14:50;;;;;;;;;;;;;;;;;;5084584;28;19992;-67
2021/04/19 04:17:17;;;;;;;;;;;;;;;;;;5113804;22;19962;-68
2021/04/19 04:19:43;;;;;;;;;;;;;;;;;;5105297;28;20014;-68
2021/04/19 04:22:10;;;;;;;;;;;;;;;;;;5105611;28;19928;-69
2021/04/19 04:24:36;;;;;;;;;;;;;;;;;;5103107;28;19924;-68
2021/04/19 04:27:03;;;;;;;;;;;;;;;;;;5108254;28;19924;-68
2021/04/19 04:29:29;;;;;;;;;;;;;;;;;;5101652;28;19931;-69
2021/04/19 04:31:56;;;;;;;;;;;;;;;;;;5101687;28;19924;-68
2021/04/19 04:34:22;;;;;;;;;;;;;;;;;;5098744;28;19934;-69
2021/04/19 04:36:49;;;;;;;;;;;;;;;;;;5104243;28;19928;-69
2021/04/19 04:39:15;;;;;;;;;;;;;;;;;;5109109;28;20387;-68
2021/04/19 04:41:42;;;;;;;;;;;;;;;;;;5106244;28;19927;-69
2021/04/19 04:44:08;;;;;;;;;;;;;;;;;;5103720;28;20253;-69
2021/04/19 04:46:35;;;;;;;;;;;;;;;;;;5101643;28;19924;-68
2021/04/19 04:49:01;;;;;;;;;;;;;;;;;;5101998;28;20375;-69
2021/04/19 04:51:28;;;;;;;;;;;;;;;;;;5102157;28;19931;-70
2021/04/19 04:53:54;;;;;;;;;;;;;;;;;;5103112;28;20343;-68
2021/04/19 04:56:21;;;;;;;;;;;;;;;;;;5103704;28;19924;-68
2021/04/19 04:58:47;;;;;;;;;;;;;;;;;;5106196;28;20399;-68
2021/04/19 05:01:14;;;;;;;;;;;;;;;;;;5107816;28;19930;-68
2021/04/19 05:03:40;;;;;;;;;;;;;;;;;;5104942;28;20430;-69
2021/04/19 05:06:07;;;;;;;;;;;;;;;;;;5103869;28;19969;-68
2021/04/19 05:08:35;;;;;;;;;;;;;;;;;;5106542;28;19924;-69
2021/04/19 05:11:01;;;;;;;;;;;;;;;;;;5107091;28;20411;-68
2021/04/19 05:13:28;;;;;;;;;;;;;;;;;;5107061;28;19924;-68
2021/04/19 05:15:54;;;;;;;;;;;;;;;;;;5103957;28;19955;-68
2021/04/19 05:18:21;;;;;;;;;;;;;;;;;;5098747;28;19928;-68
2021/04/19 05:20:47;;;;;;;;;;;;;;;;;;5106504;28;20399;-68
2021/04/19 05:23:15;;;;;;;;;;;;;;;;;;5102782;28;19924;-69
2021/04/19 05:25:41;;;;;;;;;;;;;;;;;;5098869;28;19930;-68
2021/04/19 05:28:08;;;;;;;;;;;;;;;;;;5105098;28;19923;-68
2021/04/19 05:30:34;;;;;;;;;;;;;;;;;;5098495;28;19932;-68
2021/04/19 05:33:01;;;;;;;;;;;;;;;;;;5103561;28;20341;-68
2021/04/19 05:35:27;;;;;;;;;;;;;;;;;;5098981;28;19977;-67
2021/04/19 05:37:54;;;;;;;;;;;;;;;;;;5097097;28;19924;-68
2021/04/19 05:40:20;;;;;;;;;;;;;;;;;;5107459;28;19923;-67
2021/04/19 05:42:47;;;;;;;;;;;;;;;;;;5102181;28;20418;-67
2021/04/19 05:45:13;;;;;;;;;;;;;;;;;;5102256;28;19928;-68
2021/04/19 05:47:40;;;;;;;;;;;;;;;;;;5107690;28;19928;-67
2021/04/19 05:50:06;;;;;;;;;;;;;;;;;;5107493;28;19932;-68
2021/04/19 05:52:33;;;;;;;;;;;;;;;;;;5104629;28;19939;-68
2021/04/19 05:54:59;;;;;;;;;;;;;;;;;;5102854;28;19935;-68
2021/04/19 05:57:26;;;;;;;;;;;;;;;;;;5107140;28;19928;-68
2021/04/19 05:59:52;;;;;;;;;;;;;;;;;;5106652;28;19934;-69
2021/04/19 06:02:19;;;;;;;;;;;;;;;;;;5103398;28;19924;-68
2021/04/19 06:04:45;;;;;;;;;;;;;;;;;;5106924;28;19981;-69
2021/04/19 06:07:12;;;;;;;;;;;;;;;;;;5107521;28;19928;-69
2021/04/19 06:09:38;;;;;;;;;;;;;;;;;;5110616;27;19924;-68
2021/04/19 06:12:05;;;;;;;;;;;;;;;;;;5111431;28;19946;-69
2021/04/19 06:14:31;;;;;;;;;;;;;;;;;;5109100;27;19932;-68
2021/04/19 06:16:58;;;;;;;;;;;;;;;;;;5105825;28;20001;-68
2021/04/19 06:19:24;;;;;;;;;;;;;;;;;;5109994;28;20004;-68
2021/04/19 06:21:51;;;;;;;;;;;;;;;;;;5112237;28;20375;-68
2021/04/19 06:24:17;;;;;;;;;;;;;;;;;;5112618;28;19924;-68
2021/04/19 06:26:44;;;;;;;;;;;;;;;;;;5103718;28;19977;-67
2021/04/19 06:29:11;;;;;;;;;;;;;;;;;;5112571;28;19924;-68
2021/04/19 06:31:38;;;;;;;;;;;;;;;;;;5109857;28;19923;-68
2021/04/19 06:34:04;;;;;;;;;;;;;;;;;;5106288;28;19924;-68
2021/04/19 06:36:31;;;;;;;;;;;;;;;;;;5102703;28;20268;-68
2021/04/19 06:38:57;;;;;;;;;;;;;;;;;;5111105;28;19924;-68
2021/04/19 06:41:24;;;;;;;;;;;;;;;;;;5107818;28;19932;-67
2021/04/19 06:43:50;;;;;;;;;;;;;;;;;;5104636;28;21265;-69
2021/04/19 06:46:17;;;;;;;;;;;;;;;;;;5102667;28;20376;-68
2021/04/19 06:48:45;;;;;;;;;;;;;;;;;;5102410;28;19928;-68
2021/04/19 06:51:11;;;;;;;;;;;;;;;;;;5093159;28;21246;-68
2021/04/19 06:53:38;;;;;;;;;;;;;;;;;;5102271;28;20405;-68
2021/04/19 06:56:04;;;;;;;;;;;;;;;;;;5100788;28;19939;-67
2021/04/19 06:58:30;;;;;;;;;;;;;;;;;;5100838;27;19924;-67
2021/04/19 07:01:00;;;;;;;;;;;;;;;;;;5098437;28;20390;-67
2021/04/19 07:03:26;;;;;;;;;;;;;;;;;;5100135;28;19938;-67
2021/04/19 07:05:53;;;;;;;;;;;;;;;;;;5100940;28;20007;-67
2021/04/19 07:08:19;;;;;;;;;;;;;;;;;;5093498;28;20140;-67
2021/04/19 07:10:46;;;;;;;;;;;;;;;;;;5104632;28;20010;-67
2021/04/19 07:13:12;;;;;;;;;;;;;;;;;;5106343;28;19931;-67
2021/04/19 07:15:39;;;;;;;;;;;;;;;;;;5109863;28;20022;-67
2021/04/19 07:18:06;;;;;;;;;;;;;;;;;;5104206;28;19930;-67
2021/04/19 07:20:32;;;;;;;;;;;;;;;;;;5106044;28;19928;-67
2021/04/19 07:22:59;;;;;;;;;;;;;;;;;;5106855;28;19931;-67
2021/04/19 07:25:25;;;;;;;;;;;;;;;;;;5108238;28;20336;-67
2021/04/19 07:27:52;;;;;;;;;;;;;;;;;;5102211;28;19934;-67
2021/04/19 07:30:18;;;;;;;;;;;;;;;;;;5105151;28;19924;-67
2021/04/19 07:32:45;;;;;;;;;;;;;;;;;;5106096;28;19924;-67
2021/04/19 07:35:11;;;;;;;;;;;;;;;;;;5104163;28;21433;-67
2021/04/19 07:37:38;;;;;;;;;;;;;;;;;;5105195;28;19923;-67
2021/04/19 07:40:04;;;;;;;;;;;;;;;;;;5099392;28;20395;-67
2021/04/19 07:42:33;;;;;;;;;;;;;;;;;;5106454;28;19923;-67
2021/04/19 07:44:59;;;;;;;;;;;;;;;;;;5106973;28;20018;-67
2021/04/19 07:47:26;;;;;;;;;;;;;;;;;;5105654;28;19928;-67
2021/04/19 07:49:53;;;;;;;;;;;;;;;;;;5101386;28;19932;-67
2021/04/19 07:52:19;;;;;;;;;;;;;;;;;;5106257;28;19946;-67
2021/04/19 07:54:46;;;;;;;;;;;;;;;;;;5106961;28;19935;-67
2021/04/19 07:57:13;;;;;;;;;;;;;;;;;;5106085;28;19923;-67
2021/04/19 07:59:39;;;;;;;;;;;;;;;;;;5099446;28;20024;-67
2021/04/19 08:02:06;;;;;;;;;;;;;;;;;;5100747;28;19923;-67
2021/04/19 08:04:32;;;;;;;;;;;;;;;;;;5103206;28;20783;-67
2021/04/19 08:06:59;;;;;;;;;;;;;;;;;;5102444;28;19967;-67
2021/04/19 08:09:25;;;;;;;;;;;;;;;;;;5100379;28;19995;-67
2021/04/19 08:11:57;;;;;;;;;;;;;;;;;;5105628;28;19966;-67
2021/04/19 08:14:23;;;;;;;;;;;;;;;;;;5107099;27;19932;-67
2021/04/19 08:16:50;;;;;;;;;;;;;;;;;;5097195;28;20441;-67
2021/04/19 08:19:16;;;;;;;;;;;;;;;;;;5098049;28;19924;-67
2021/04/19 08:21:43;;;;;;;;;;;;;;;;;;5104786;28;19927;-67
2021/04/19 08:24:09;;;;;;;;;;;;;;;;;;5103201;28;19935;-67
2021/04/19 08:26:36;;;;;;;;;;;;;;;;;;5108676;28;20015;-67
2021/04/19 08:29:02;;;;;;;;;;;;;;;;;;5092242;28;19924;-67
2021/04/19 08:31:28;;;;;;;;;;;;;;;;;;5098809;28;19931;-67
2021/04/19 08:33:55;;;;;;;;;;;;;;;;;;5102560;28;20360;-67
2021/04/19 08:36:21;;;;;;;;;;;;;;;;;;5106355;28;19930;-67
2021/04/19 08:38:48;;;;;;;;;;;;;;;;;;5103205;28;19969;-66
2021/04/19 08:41:17;;;;;;;;;;;;;;;;;;5105680;28;20019;-66
2021/04/19 08:43:43;;;;;;;;;;;;;;;;;;5108743;28;19930;-66
2021/04/19 08:46:11;;;;;;;;;;;;;;;;;;5108002;28;19924;-67
2021/04/19 08:48:37;;;;;;;;;;;;;;;;;;5102704;28;19928;-67
2021/04/19 08:51:04;;;;;;;;;;;;;;;;;;5104120;28;20406;-67
2021/04/19 08:53:30;;;;;;;;;;;;;;;;;;5100753;28;19924;-67
2021/04/19 08:55:58;;;;;;;;;;;;;;;;;;5100420;28;19946;-68
2021/04/19 08:58:24;;;;;;;;;;;;;;;;;;5104687;28;19939;-67
2021/04/19 09:00:51;;;;;;;;;;;;;;;;;;5104721;28;19928;-67
2021/04/19 09:03:17;;;;;;;;;;;;;;;;;;5101848;28;20073;-67
2021/04/19 09:05:44;;;;;;;;;;;;;;;;;;5103206;27;19958;-67
2021/04/19 09:08:12;;;;;;;;;;;;;;;;;;5100827;28;20019;-67
2021/04/19 09:10:38;;;;;;;;;;;;;;;;;;5095440;28;19924;-67
2021/04/19 09:13:05;;;;;;;;;;;;;;;;;;5098280;28;19931;-67
2021/04/19 09:15:33;;;;;;;;;;;;;;;;;;5109222;28;19983;-67
2021/04/19 09:17:59;;;;;;;;;;;;;;;;;;5103600;28;19946;-67
2021/04/19 09:20:26;;;;;;;;;;;;;;;;;;5099091;28;19923;-67
2021/04/19 09:22:52;;;;;;;;;;;;;;;;;;5103110;28;19932;-68
2021/04/19 09:25:19;;;;;;;;;;;;;;;;;;5104078;28;19949;-67
2021/04/19 09:27:45;;;;;;;;;;;;;;;;;;5106719;28;19927;-67
2021/04/19 09:30:12;;;;;;;;;;;;;;;;;;5105690;28;20018;-67
2021/04/19 09:32:38;;;;;;;;;;;;;;;;;;5103768;28;20446;-67
2021/04/19 09:35:05;;;;;;;;;;;;;;;;;;5103757;28;20006;-67
2021/04/19 09:37:31;;;;;;;;;;;;;;;;;;5107174;28;19941;-68
2021/04/19 09:40:00;;;;;;;;;;;;;;;;;;5098308;28;19924;-67
2021/04/19 09:42:26;;;;;;;;;;;;;;;;;;5103829;28;19927;-67
2021/04/19 09:44:53;;;;;;;;;;;;;;;;;;5102058;28;20039;-67
2021/04/19 09:47:19;;;;;;;;;;;;;;;;;;5105941;28;20019;-67
2021/04/19 09:49:46;;;;;;;;;;;;;;;;;;5103262;28;19927;-67
2021/04/19 09:52:12;;;;;;;;;;;;;;;;;;5100538;28;20439;-67
2021/04/19 09:54:39;;;;;;;;;;;;;;;;;;5100776;28;19928;-67
2021/04/19 09:57:07;;;;;;;;;;;;;;;;;;5104430;28;19930;-67
2021/04/19 09:59:33;;;;;;;;;;;;;;;;;;5102794;28;19924;-67
2021/04/19 10:02:00;;;;;;;;;;;;;;;;;;5106092;28;20388;-69
2021/04/19 10:04:26;;;;;;;;;;;;;;;;;;5098241;28;19924;-68
2021/04/19 10:06:53;;;;;;;;;;;;;;;;;;5096571;28;19932;-69
2021/04/19 10:09:19;;;;;;;;;;;;;;;;;;5102559;28;19934;-68
2021/04/19 10:11:46;;;;;;;;;;;;;;;;;;5104400;28;19939;-67
2021/04/19 10:14:13;;;;;;;;;;;;;;;;;;5104658;28;19932;-67
2021/04/19 10:16:40;;;;;;;;;;;;;;;;;;5108894;28;19931;-67
2021/04/19 10:19:06;;;;;;;;;;;;;;;;;;5100854;28;19924;-67
2021/04/19 10:21:32;;;;;;;;;;;;;;;;;;5106660;28;20037;-67
2021/04/19 10:23:59;;;;;;;;;;;;;;;;;;5101429;28;19928;-67
2021/04/19 10:26:25;;;;;;;;;;;;;;;;;;5103785;28;20014;-67
2021/04/19 10:28:52;;;;;;;;;;;;;;;;;;5099158;28;19931;-67
2021/04/19 10:31:19;;;;;;;;;;;;;;;;;;5104548;28;19984;-67
2021/04/19 10:33:46;;;;;;;;;;;;;;;;;;5099841;28;20030;-67
2021/04/19 10:36:12;;;;;;;;;;;;;;;;;;5099740;28;19931;-66
2021/04/19 10:38:39;;;;;;;;;;;;;;;;;;5098064;28;20338;-66
2021/04/19 10:41:05;;;;;;;;;;;;;;;;;;5096290;28;19973;-66
2021/04/19 10:43:32;;;;;;;;;;;;;;;;;;5098438;28;19931;-67
2021/04/19 10:45:59;;;;;;;;;;;;;;;;;;5109997;28;19938;-67
2021/04/19 10:48:27;;;;;;;;;;;;;;;;;;5105655;28;19934;-67
2021/04/19 10:50:55;;;;;;;;;;;;;;;;;;5101562;28;19971;-67
2021/04/19 10:53:21;;;;;;;;;;;;;;;;;;5106809;28;19928;-66
2021/04/19 10:55:48;;;;;;;;;;;;;;;;;;5107972;28;19924;-67
2021/04/19 10:58:14;;;;;;;;;;;;;;;;;;5104899;28;19927;-66
2021/04/19 11:00:41;;;;;;;;;;;;;;;;;;5105961;28;19924;-66
2021/04/19 11:03:07;;;;;;;;;;;;;;;;;;5106746;28;19946;-66
2021/04/19 11:05:34;;;;;;;;;;;;;;;;;;5103243;28;19924;-66
2021/04/19 11:08:00;;;;;;;;;;;;;;;;;;5103198;27;19943;-66
2021/04/19 11:10:27;;;;;;;;;;;;;;;;;;5105660;28;20388;-66
2021/04/19 11:12:53;;;;;;;;;;;;;;;;;;5105347;28;19977;-68
2021/04/19 11:15:21;;;;;;;;;;;;;;;;;;5104689;27;20152;-68
2021/04/19 11:17:47;;;;;;;;;;;;;;;;;;5102506;28;19923;-67
2021/04/19 11:20:14;;;;;;;;;;;;;;;;;;5101096;28;19942;-67
2021/04/19 11:22:40;;;;;;;;;;;;;;;;;;5105309;28;19932;-68
2021/04/19 11:25:07;;;;;;;;;;;;;;;;;;5098972;28;19938;-68
2021/04/19 11:27:33;;;;;;;;;;;;;;;;;;5108764;28;19924;-69
2021/04/19 11:30:00;;;;;;;;;;;;;;;;;;5103469;28;19924;-68
2021/04/19 11:32:26;;;;;;;;;;;;;;;;;;5108771;28;19932;-68
2021/04/19 11:34:54;;;;;;;;;;;;;;;;;;5103941;28;20415;-68
2021/04/19 11:37:20;;;;;;;;;;;;;;;;;;5106362;28;19924;-68
2021/04/19 11:39:47;;;;;;;;;;;;;;;;;;5098217;28;20193;-68
2021/04/19 11:42:13;;;;;;;;;;;;;;;;;;5105433;28;20010;-69
2021/04/19 11:44:40;;;;;;;;;;;;;;;;;;5101065;28;19928;-68
2021/04/19 11:47:06;;;;;;;;;;;;;;;;;;5101498;28;19935;-67
2021/04/19 11:49:33;;;;;;;;;;;;;;;;;;5101870;28;20349;-68
2021/04/19 11:51:59;;;;;;;;;;;;;;;;;;5098452;28;19959;-67
2021/04/19 11:54:26;;;;;;;;;;;;;;;;;;5104798;28;20339;-67
2021/04/19 11:56:52;;;;;;;;;;;;;;;;;;5099091;28;19924;-67
2021/04/19 11:59:19;;;;;;;;;;;;;;;;;;5093919;28;19928;-70
2021/04/19 12:01:45;;;;;;;;;;;;;;;;;;5102660;28;20510;-69
2021/04/19 12:04:14;;;;;;;;;;;;;;;;;;5101671;28;19955;-70
2021/04/19 12:06:41;;;;;;;;;;;;;;;;;;5097909;28;19924;-69
2021/04/19 12:09:07;;;;;;;;;;;;;;;;;;5103071;28;20088;-68
2021/04/19 12:11:34;;;;;;;;;;;;;;;;;;5097711;28;19981;-67
2021/04/19 12:14:01;;;;;;;;;;;;;;;;;;5099788;28;20345;-68
2021/04/19 12:16:28;;;;;;;;;;;;;;;;;;5102820;28;19946;-67
2021/04/19 12:18:55;;;;;;;;;;;;;;;;;;5104480;28;19939;-68
2021/04/19 12:21:21;;;;;;;;;;;;;;;;;;5100492;28;19946;-67
2021/04/19 12:23:48;;;;;;;;;;;;;;;;;;5108993;28;19923;-68
2021/04/19 12:26:14;;;;;;;;;;;;;;;;;;5105468;28;20405;-68
2021/04/19 12:28:41;;;;;;;;;;;;;;;;;;5107010;28;20308;-68
2021/04/19 12:31:07;;;;;;;;;;;;;;;;;;5102448;28;20275;-69
2021/04/19 12:33:34;;;;;;;;;;;;;;;;;;5100826;28;19954;-68
2021/04/19 12:36:00;;;;;;;;;;;;;;;;;;5098338;28;20437;-68
2021/04/19 12:38:28;;;;;;;;;;;;;;;;;;5095095;28;20019;-68
2021/04/19 12:40:55;;;;;;;;;;;;;;;;;;5102371;28;19931;-69
2021/04/19 12:43:21;;;;;;;;;;;;;;;;;;5101168;28;20039;-68
2021/04/19 12:45:48;;;;;;;;;;;;;;;;;;5097690;28;20342;-70
2021/04/19 12:48:14;;;;;;;;;;;;;;;;;;5095850;28;20022;-68
2021/04/19 12:50:41;;;;;;;;;;;;;;;;;;5098165;28;19924;-68
2021/04/19 12:53:08;;;;;;;;;;;;;;;;;;5097354;28;19931;-68
2021/04/19 12:55:34;;;;;;;;;;;;;;;;;;5098015;28;19928;-68
2021/04/19 12:58:01;;;;;;;;;;;;;;;;;;5094192;28;19932;-69
2021/04/19 13:00:27;;;;;;;;;;;;;;;;;;5097566;28;19928;-68
2021/04/19 13:02:54;;;;;;;;;;;;;;;;;;5100033;28;19923;-68
2021/04/19 13:05:20;;;;;;;;;;;;;;;;;;5099101;28;20036;-68
2021/04/19 13:07:48;;;;;;;;;;;;;;;;;;5095332;28;20018;-66
2021/04/19 13:10:14;;;;;;;;;;;;;;;;;;5100890;28;20307;-67
2021/04/19 13:12:41;;;;;;;;;;;;;;;;;;5101724;28;20302;-67
2021/04/19 13:15:07;;;;;;;;;;;;;;;;;;5102520;28;20006;-67
2021/04/19 13:17:34;;;;;;;;;;;;;;;;;;5105402;28;20022;-67
2021/04/19 13:20:01;;;;;;;;;;;;;;;;;;5098599;28;19924;-67
2021/04/19 13:22:27;;;;;;;;;;;;;;;;;;5107670;28;19923;-67
2021/04/19 13:24:54;;;;;;;;;;;;;;;;;;5107661;28;19931;-66
2021/04/19 13:27:20;;;;;;;;;;;;;;;;;;5106636;28;19924;-68
2021/04/19 13:29:47;;;;;;;;;;;;;;;;;;5103874;28;19971;-68
2021/04/19 13:32:13;;;;;;;;;;;;;;;;;;5107551;28;20338;-69
2021/04/19 13:34:40;;;;;;;;;;;;;;;;;;5103996;28;19927;-69
2021/04/19 13:37:07;;;;;;;;;;;;;;;;;;5105741;28;20034;-68
2021/04/19 13:39:33;;;;;;;;;;;;;;;;;;5100861;28;19924;-68
2021/04/19 13:42:00;;;;;;;;;;;;;;;;;;5103957;28;20022;-69
2021/04/19 13:44:26;;;;;;;;;;;;;;;;;;5103814;28;20383;-68
2021/04/19 13:46:53;;;;;;;;;;;;;;;;;;5105755;28;20411;-69
2021/04/19 13:49:20;;;;;;;;;;;;;;;;;;5109059;28;20358;-68
2021/04/19 13:51:46;;;;;;;;;;;;;;;;;;5098654;28;19976;-69
2021/04/19 13:54:13;;;;;;;;;;;;;;;;;;5102825;28;20014;-67
2021/04/19 13:56:40;;;;;;;;;;;;;;;;;;5101864;28;19923;-68
2021/04/19 13:59:07;;;;;;;;;;;;;;;;;;5107379;28;19932;-68
2021/04/19 14:01:33;;;;;;;;;;;;;;;;;;5101883;28;20287;-67
2021/04/19 14:04:00;;;;;;;;;;;;;;;;;;5105626;28;19923;-68
2021/04/19 14:06:26;;;;;;;;;;;;;;;;;;5102120;28;19932;-67
2021/04/19 14:08:55;;;;;;;;;;;;;;;;;;5105514;28;19980;-66
2021/04/19 14:11:22;;;;;;;;;;;;;;;;;;5101235;28;19998;-64
2021/04/19 14:13:48;;;;;;;;;;;;;;;;;;5101028;28;19924;-67
2021/04/19 14:16:15;;;;;;;;;;;;;;;;;;5102442;28;19927;-68
2021/04/19 14:18:41;;;;;;;;;;;;;;;;;;5107029;28;20026;-66
2021/04/19 14:21:08;;;;;;;;;;;;;;;;;;5108649;28;19932;-67
2021/04/19 14:23:34;;;;;;;;;;;;;;;;;;5108460;28;19967;-66
2021/04/19 14:26:03;;;;;;;;;;;;;;;;;;5104058;28;20189;-66
2021/04/19 14:28:30;;;;;;;;;;;;;;;;;;5103056;28;19967;-66
2021/04/19 14:30:57;;;;;;;;;;;;;;;;;;5105073;28;19928;-66
2021/04/19 14:33:23;;;;;;;;;;;;;;;;;;5098593;28;20042;-67
2021/04/19 14:35:51;;;;;;;;;;;;;;;;;;5104343;28;19924;-67
2021/04/19 14:38:18;;;;;;;;;;;;;;;;;;5106521;28;19963;-68
2021/04/19 14:40:44;;;;;;;;;;;;;;;;;;5108445;28;20023;-67
2021/04/19 14:43:11;;;;;;;;;;;;;;;;;;5109718;28;19939;-67
2021/04/19 14:45:37;;;;;;;;;;;;;;;;;;5106822;28;19980;-67
2021/04/19 14:48:04;;;;;;;;;;;;;;;;;;5103863;28;20368;-67
2021/04/19 14:50:31;;;;;;;;;;;;;;;;;;5104937;28;20394;-67
2021/04/19 14:52:57;;;;;;;;;;;;;;;;;;5101363;28;19932;-67
2021/04/19 14:55:24;;;;;;;;;;;;;;;;;;5105920;28;19931;-67
2021/04/19 14:57:50;;;;;;;;;;;;;;;;;;5104087;28;19931;-67
2021/04/19 15:00:17;;;;;;;;;;;;;;;;;;5108025;28;20385;-67
2021/04/19 15:02:43;;;;;;;;;;;;;;;;;;5107328;28;19924;-67
2021/04/19 15:05:12;;;;;;;;;;;;;;;;;;5105221;28;19930;-68
2021/04/19 15:07:39;;;;;;;;;;;;;;;;;;5100374;28;19928;-67
2021/04/19 15:10:05;;;;;;;;;;;;;;;;;;5107507;28;19930;-69
2021/04/19 15:12:33;;;;;;;;;;;;;;;;;;5105296;28;20014;-69
2021/04/19 15:15:00;;;;;;;;;;;;;;;;;;5108613;28;19923;-70
2021/04/19 15:17:26;;;;;;;;;;;;;;;;;;5105146;28;19927;-69
2021/04/19 15:19:53;;;;;;;;;;;;;;;;;;5108002;28;19974;-68
2021/04/19 15:22:19;;;;;;;;;;;;;;;;;;5103764;28;19971;-68
2021/04/19 15:24:46;;;;;;;;;;;;;;;;;;5104648;28;20002;-69
2021/04/19 15:27:14;;;;;;;;;;;;;;;;;;5105752;28;19930;-68
2021/04/19 15:29:40;;;;;;;;;;;;;;;;;;5101910;28;19924;-68
2021/04/19 15:32:07;;;;;;;;;;;;;;;;;;5104586;28;20478;-67
2021/04/19 15:34:33;;;;;;;;;;;;;;;;;;5106531;27;19931;-68
2021/04/19 15:37:00;;;;;;;;;;;;;;;;;;5105750;28;20426;-68
2021/04/19 15:39:26;;;;;;;;;;;;;;;;;;5106877;28;19971;-69
2021/04/19 15:41:53;;;;;;;;;;;;;;;;;;5104852;28;19946;-68
2021/04/19 15:44:19;;;;;;;;;;;;;;;;;;5107353;28;19936;-68
2021/04/19 15:46:46;;;;;;;;;;;;;;;;;;5103697;28;19924;-68
2021/04/19 15:49:12;;;;;;;;;;;;;;;;;;5104724;28;19924;-68
2021/04/19 15:51:39;;;;;;;;;;;;;;;;;;5104222;28;19975;-68
2021/04/19 15:54:05;;;;;;;;;;;;;;;;;;5109434;28;19979;-68
2021/04/19 15:56:32;;;;;;;;;;;;;;;;;;5106245;28;20174;-68
2021/04/19 15:58:58;;;;;;;;;;;;;;;;;;5104947;27;20140;-67
2021/04/19 16:01:25;;;;;;;;;;;;;;;;;;5102246;28;19931;-67
2021/04/19 16:03:51;;;;;;;;;;;;;;;;;;5106109;27;19931;-68
2021/04/19 16:06:18;;;;;;;;;;;;;;;;;;5104305;28;19936;-68
2021/04/19 16:08:44;;;;;;;;;;;;;;;;;;5106558;28;20416;-68
2021/04/19 16:11:11;;;;;;;;;;;;;;;;;;5104371;28;20009;-67
2021/04/19 16:13:37;;;;;;;;;;;;;;;;;;5107095;28;19930;-68
2021/04/19 16:16:04;;;;;;;;;;;;;;;;;;5115612;22;19912;-65
2021/04/19 16:18:31;;;;;;;;;;;;;;;;;;5084230;28;19935;-66
2021/04/19 16:20:57;;;;;;;;;;;;;;;;;;5084793;28;19960;-65
2021/04/19 16:23:25;;;;;;;;;;;;;;;;;;5047572;28;19925;-66
2021/04/19 16:25:51;;;;;;;;;;;;;;;;;;5028788;28;19975;-66
2021/04/19 16:28:18;;;;;;;;;;;;;;;;;;5011835;28;20338;-66
2021/04/19 16:30:45;;;;;;;;;;;;;;;;;;5010238;28;19926;-66
2021/04/19 16:33:11;;;;;;;;;;;;;;;;;;5007728;28;19925;-68
2021/04/19 16:35:38;;;;;;;;;;;;;;;;;;5007029;28;20008;-68
2021/04/19 16:38:04;;;;;;;;;;;;;;;;;;5010190;28;19925;-67
2021/04/19 16:40:31;;;;;;;;;;;;;;;;;;5004353;28;19926;-68